Terminal Aerodrome Forecast
Issued by NWS

Home | Current Version | Previous Version | Graphics & Text | Print | Product List | Glossary On
Versions: 1 2 3 4 5 6 7 8 9 10 11 12 13 14 15 16
767
FTUS43 KGRB 271721
TAFAUW
TAF
KAUW 271721Z 2718/2818 23007KT P6SM BKN050
     FM280400 33002KT P6SM VCSH OVC090
     FM281200 34003KT P6SM -SHRA OVC050
     FM281500 29004KT P6SM -SHRA BKN090
      TEMPO 2815/2818 4SM -SHRA OVC040=

USA.gov is the U.S. government's official web portal to all federal, state and local government web resources and services.